createdAt,value
2022-11-01T00:01:50.473Z,14.83
2022-11-01T00:04:17.303Z,14.81
2022-11-01T00:06:44.003Z,14.82
2022-11-01T00:09:10.665Z,14.81
2022-11-01T00:11:37.253Z,14.84
2022-11-01T00:14:03.715Z,14.83
2022-11-01T00:16:30.083Z,14.88
2022-11-01T00:18:56.472Z,14.81
2022-11-01T00:21:23.318Z,14.88
2022-11-01T00:23:49.695Z,14.84
2022-11-01T00:26:19.813Z,14.91
2022-11-01T00:28:46.356Z,14.93
2022-11-01T00:31:14.390Z,14.93
2022-11-01T00:33:40.968Z,14.89
2022-11-01T00:36:08.540Z,14.92
2022-11-01T00:38:35.628Z,14.94
2022-11-01T00:41:03.862Z,14.91
2022-11-01T00:43:31.524Z,14.85
2022-11-01T00:45:58.452Z,14.87
2022-11-01T00:48:24.936Z,14.89
2022-11-01T00:50:51.766Z,14.94
2022-11-01T00:53:18.153Z,14.94
2022-11-01T00:55:44.563Z,14.92
2022-11-01T00:58:10.962Z,14.94
2022-11-01T01:00:37.659Z,14.96
2022-11-01T01:03:05.480Z,14.98
2022-11-01T01:05:33.351Z,15.02
2022-11-01T01:07:59.866Z,15.04
2022-11-01T01:10:26.657Z,14.99
2022-11-01T01:12:53.039Z,15.01
2022-11-01T01:15:19.621Z,15.01
2022-11-01T01:17:46.259Z,15.09
2022-11-01T01:20:14.136Z,15.03
2022-11-01T01:22:41.395Z,15.06
2022-11-01T01:25:08.509Z,15.12
2022-11-01T01:27:34.862Z,15.08
2022-11-01T01:30:01.332Z,15.15
2022-11-01T01:32:27.723Z,15.16
2022-11-01T01:34:54.075Z,15.24
2022-11-01T01:37:20.442Z,15.24
2022-11-01T01:39:46.818Z,15.26
2022-11-01T01:42:36.723Z,15.25
2022-11-01T01:45:28.509Z,15.20
2022-11-01T01:47:59.748Z,15.21
2022-11-01T01:50:32.744Z,15.23
2022-11-01T01:53:11.923Z,15.24
2022-11-01T01:56:00.592Z,15.28
2022-11-01T01:58:37.835Z,15.31
2022-11-01T02:01:04.357Z,15.25
2022-11-01T02:03:33.586Z,15.28
2022-11-01T02:08:57.905Z,15.24
2022-11-01T02:11:24.280Z,15.30
2022-11-01T02:13:51.371Z,15.32
2022-11-01T02:16:26.648Z,15.38
2022-11-01T02:19:19.427Z,15.37
2022-11-01T02:21:54.903Z,15.33
2022-11-01T02:24:46.239Z,15.34
2022-11-01T02:27:24.863Z,15.38
2022-11-01T02:30:03.994Z,15.40
2022-11-01T02:33:02.813Z,15.40
2022-11-01T02:35:55.462Z,15.44
2022-11-01T02:38:29.218Z,15.44
2022-11-01T02:41:01.118Z,15.47
2022-11-01T02:43:36.851Z,15.49
2022-11-01T02:46:25.969Z,15.51
2022-11-01T02:48:53.407Z,15.43
2022-11-01T02:51:22.961Z,15.43
2022-11-01T02:53:49.341Z,15.52
2022-11-01T02:56:17.844Z,15.55
2022-11-01T02:58:46.368Z,15.54
2022-11-01T03:01:21.501Z,15.62
2022-11-01T03:03:50.122Z,15.69
2022-11-01T03:06:27.074Z,15.67
2022-11-01T03:09:00.616Z,15.65
2022-11-01T03:11:38.275Z,15.53
2022-11-01T03:14:18.317Z,15.46
2022-11-01T03:17:06.385Z,15.44
2022-11-01T03:19:50.213Z,15.52
2022-11-01T03:22:44.169Z,15.45
2022-11-01T03:25:39.793Z,15.36
2022-11-01T03:28:20.703Z,15.20
2022-11-01T03:30:55.950Z,15.07
2022-11-01T03:33:25.293Z,15.17
2022-11-01T03:35:56.178Z,15.14
2022-11-01T03:38:29.427Z,15.16
2022-11-01T03:41:03.102Z,15.13
2022-11-01T03:43:31.713Z,15.14
2022-11-01T03:45:58.350Z,15.07
2022-11-01T03:48:25.039Z,15.13
2022-11-01T03:50:53.055Z,15.07
2022-11-01T03:53:19.928Z,14.94
2022-11-01T03:55:46.295Z,14.89
2022-11-01T03:58:12.654Z,14.92
2022-11-01T04:00:43.049Z,14.86
2022-11-01T04:03:10.768Z,14.81
2022-11-01T04:05:40.510Z,14.89
2022-11-01T04:08:08.465Z,14.98
2022-11-01T04:10:34.877Z,14.97
2022-11-01T04:13:02.150Z,14.94
2022-11-01T04:15:48.134Z,14.92
2022-11-01T04:18:41.535Z,14.89
2022-11-01T04:21:15.968Z,14.83
2022-11-01T04:23:43.796Z,14.88
2022-11-01T04:26:15.286Z,14.88
2022-11-01T04:28:41.777Z,14.83
2022-11-01T04:31:08.763Z,14.73
2022-11-01T04:33:35.183Z,14.63
2022-11-01T04:36:06.333Z,14.55
2022-11-01T04:38:32.683Z,14.56
2022-11-01T04:40:59.027Z,14.44
2022-11-01T04:43:25.379Z,14.38
2022-11-01T04:45:55.947Z,14.40
2022-11-01T04:48:22.791Z,14.41
2022-11-01T04:50:49.383Z,14.35
2022-11-01T04:53:16.097Z,14.28
2022-11-01T04:55:42.665Z,14.25
2022-11-01T04:58:10.787Z,14.35
2022-11-01T05:00:38.347Z,14.45
2022-11-01T05:03:07.342Z,14.52
2022-11-01T05:05:35.222Z,14.48
2022-11-01T05:10:35.991Z,14.35
2022-11-01T05:13:03.027Z,14.25
2022-11-01T05:15:30.138Z,14.07
2022-11-01T05:17:56.737Z,14.05
2022-11-01T05:20:23.379Z,14.10
2022-11-01T05:22:49.771Z,14.10
2022-11-01T05:25:17.832Z,14.14
2022-11-01T05:27:44.199Z,14.11
2022-11-01T05:30:11.230Z,14.02
2022-11-01T05:32:37.938Z,14.05
2022-11-01T05:35:06.065Z,13.91
2022-11-01T05:37:32.454Z,13.91
2022-11-01T05:39:58.799Z,14.00
2022-11-01T05:42:25.400Z,13.95
2022-11-01T05:44:51.877Z,13.87
2022-11-01T05:47:18.279Z,13.81
2022-11-01T05:49:44.679Z,13.81
2022-11-01T05:52:11.035Z,13.79
2022-11-01T05:54:37.415Z,13.80
2022-11-01T05:57:05.591Z,13.76
2022-11-01T05:59:31.966Z,13.82
2022-11-01T06:01:58.404Z,13.72
2022-11-01T06:04:24.827Z,13.72
2022-11-01T06:06:51.182Z,13.68
2022-11-01T06:09:17.519Z,13.62
2022-11-01T06:11:43.910Z,13.66
2022-11-01T06:14:10.634Z,13.63
2022-11-01T06:16:37.064Z,13.60
2022-11-01T06:19:03.442Z,13.57
2022-11-01T06:21:30.499Z,13.59
2022-11-01T06:23:57.006Z,13.67
2022-11-01T06:26:23.466Z,13.61
2022-11-01T06:28:49.919Z,13.66
2022-11-01T06:31:16.331Z,13.63
2022-11-01T06:33:42.685Z,13.63
2022-11-01T06:36:09.387Z,13.59
2022-11-01T06:38:36.155Z,13.67
2022-11-01T06:41:02.995Z,13.74
2022-11-01T06:43:29.414Z,13.69
2022-11-01T06:45:58.579Z,13.74
2022-11-01T06:48:24.933Z,13.75
2022-11-01T06:50:53.646Z,13.69
2022-11-01T06:53:20.039Z,13.65
2022-11-01T06:55:46.424Z,13.61
2022-11-01T06:58:12.778Z,13.63
2022-11-01T07:00:39.145Z,13.67
2022-11-01T07:03:07.824Z,13.67
2022-11-01T07:05:37.524Z,13.65
2022-11-01T07:08:06.929Z,13.75
2022-11-01T07:10:33.997Z,13.84
2022-11-01T07:13:01.851Z,13.80
2022-11-01T07:15:29.989Z,13.73
2022-11-01T07:18:01.011Z,13.71
2022-11-01T07:20:29.558Z,13.75
2022-11-01T07:22:58.693Z,13.67
2022-11-01T07:25:25.140Z,13.60
2022-11-01T07:27:51.558Z,13.57
2022-11-01T07:30:18.088Z,13.59
2022-11-01T07:32:44.471Z,13.62
2022-11-01T07:35:10.840Z,13.62
2022-11-01T07:37:37.283Z,13.66
2022-11-01T07:40:04.639Z,13.60
2022-11-01T07:42:31.025Z,13.60
2022-11-01T07:44:57.436Z,13.61
2022-11-01T07:47:23.775Z,13.56
2022-11-01T07:49:50.918Z,13.60
2022-11-01T07:52:17.324Z,13.57
2022-11-01T07:54:43.695Z,13.60
2022-11-01T07:57:10.054Z,13.63
2022-11-01T07:59:37.080Z,13.50
2022-11-01T08:02:06.932Z,13.55
2022-11-01T08:04:34.827Z,13.57
2022-11-01T08:07:01.508Z,13.60
2022-11-01T08:09:27.867Z,13.53
2022-11-01T08:11:54.217Z,13.52
2022-11-01T08:14:20.563Z,13.62
2022-11-01T08:16:55.690Z,13.61
2022-11-01T08:19:22.493Z,13.65
2022-11-01T08:21:50.914Z,13.67
2022-11-01T08:24:17.616Z,13.77
2022-11-01T08:26:44.266Z,13.70
2022-11-01T08:29:10.684Z,13.64
2022-11-01T08:31:41.138Z,13.63
2022-11-01T08:34:07.515Z,13.62
2022-11-01T08:36:34.142Z,13.71
2022-11-01T08:39:01.269Z,13.78
2022-11-01T08:41:30.625Z,13.86
2022-11-01T08:44:00.010Z,13.89
2022-11-01T08:46:26.399Z,13.79
2022-11-01T08:48:56.084Z,13.71
2022-11-01T08:51:25.890Z,13.77
2022-11-01T08:53:56.414Z,13.78
2022-11-01T08:56:24.776Z,13.82
2022-11-01T08:58:52.254Z,13.84
2022-11-01T09:01:19.403Z,13.74
2022-11-01T09:03:45.919Z,13.70
2022-11-01T09:06:12.381Z,13.80
2022-11-01T09:08:38.748Z,13.73
2022-11-01T09:11:06.259Z,13.68
2022-11-01T09:13:33.588Z,13.81
2022-11-01T09:16:04.344Z,13.85
2022-11-01T09:18:30.887Z,13.80
2022-11-01T09:20:57.362Z,13.82
2022-11-01T09:23:23.709Z,13.88
2022-11-01T09:25:50.108Z,13.88
2022-11-01T09:28:16.464Z,13.91
2022-11-01T09:30:49.824Z,13.91
2022-11-01T09:33:23.553Z,13.93
2022-11-01T09:35:54.111Z,13.94
2022-11-01T09:38:23.599Z,14.03
2022-11-01T09:41:00.179Z,14.09
2022-11-01T09:43:31.797Z,14.05
2022-11-01T09:46:00.676Z,14.03
2022-11-01T09:48:29.729Z,14.00
2022-11-01T09:50:56.216Z,14.04
2022-11-01T09:53:27.393Z,14.00
2022-11-01T09:56:22.576Z,13.94
2022-11-01T09:59:02.809Z,13.93
2022-11-01T10:01:56.826Z,13.96
2022-11-01T10:04:45.094Z,13.94
2022-11-01T10:07:23.699Z,14.08
2022-11-01T10:10:24.062Z,14.08
2022-11-01T10:13:12.675Z,14.04
2022-11-01T10:15:54.594Z,14.17
2022-11-01T10:18:41.918Z,14.32
2022-11-01T10:21:22.498Z,14.37
2022-11-01T10:23:53.503Z,14.39
2022-11-01T10:26:31.066Z,14.54
2022-11-01T10:29:16.780Z,14.53
2022-11-01T10:31:47.508Z,14.56
2022-11-01T10:34:38.301Z,14.64
2022-11-01T10:37:47.251Z,14.55
2022-11-01T10:40:29.233Z,14.55
2022-11-01T10:42:55.972Z,14.64
2022-11-01T10:45:23.127Z,14.68
2022-11-01T10:47:56.640Z,14.69
2022-11-01T10:50:28.225Z,14.71
2022-11-01T10:53:06.660Z,14.85
2022-11-01T10:55:42.399Z,14.97
2022-11-01T10:58:28.105Z,14.99
2022-11-01T11:00:54.802Z,14.82
2022-11-01T11:03:25.979Z,14.76
2022-11-01T11:05:54.791Z,14.65
2022-11-01T11:08:24.327Z,14.69
2022-11-01T11:10:51.628Z,14.76
2022-11-01T11:13:22.579Z,14.88
2022-11-01T11:16:00.491Z,14.87
2022-11-01T11:18:37.387Z,14.86
2022-11-01T11:21:11.660Z,14.84
2022-11-01T11:23:46.401Z,14.91
2022-11-01T11:26:16.711Z,14.88
2022-11-01T11:28:47.583Z,15.05
2022-11-01T11:31:22.953Z,15.15
2022-11-01T11:34:16.275Z,15.20
2022-11-01T11:36:47.294Z,15.16
2022-11-01T11:39:26.996Z,15.22
2022-11-01T11:41:53.678Z,15.37
2022-11-01T11:44:38.308Z,15.32
2022-11-01T11:47:04.791Z,15.33
2022-11-01T11:49:32.280Z,15.42
2022-11-01T11:51:59.049Z,15.51
2022-11-01T11:54:29.056Z,15.41
2022-11-01T11:57:19.807Z,15.45
2022-11-01T11:59:52.276Z,15.43
2022-11-01T12:02:23.151Z,15.43
2022-11-01T12:04:56.427Z,15.47
2022-11-01T12:07:29.157Z,15.51
2022-11-01T12:09:57.868Z,15.52
2022-11-01T12:12:31.376Z,15.71
2022-11-01T12:14:59.981Z,15.74
2022-11-01T12:17:32.725Z,15.71
2022-11-01T12:20:14.116Z,15.78
2022-11-01T12:22:45.292Z,15.85
2022-11-01T12:25:16.648Z,15.92
2022-11-01T12:27:51.308Z,15.90
2022-11-01T12:30:21.725Z,15.91
2022-11-01T12:32:57.021Z,15.97
2022-11-01T12:35:38.047Z,15.94
2022-11-01T12:38:30.708Z,16.12
2022-11-01T12:41:04.454Z,16.08
2022-11-01T12:43:55.787Z,15.93
2022-11-01T12:46:35.701Z,16.00
2022-11-01T12:49:11.195Z,15.81
2022-11-01T12:51:44.162Z,15.85
2022-11-01T12:54:37.671Z,15.79
2022-11-01T12:57:14.269Z,15.78
2022-11-01T12:59:43.095Z,15.87
2022-11-01T13:02:31.280Z,15.89
2022-11-01T13:05:22.326Z,15.78
2022-11-01T13:08:06.725Z,15.80
2022-11-01T13:10:38.194Z,15.53
2022-11-01T13:13:16.468Z,15.51
2022-11-01T13:16:08.560Z,15.53
2022-11-01T13:18:46.580Z,15.56
2022-11-01T13:21:35.144Z,15.52
2022-11-01T13:24:20.111Z,15.45
2022-11-01T13:26:51.248Z,15.49
2022-11-01T13:29:22.885Z,15.58
2022-11-01T13:32:05.895Z,15.59
2022-11-01T13:34:51.185Z,15.73
2022-11-01T13:37:48.636Z,15.79
2022-11-01T13:40:33.490Z,15.78
2022-11-01T13:43:21.320Z,15.70
2022-11-01T13:46:25.068Z,15.74
2022-11-01T13:49:09.378Z,15.71
2022-11-01T13:51:56.592Z,15.71
2022-11-01T13:54:47.371Z,15.72
2022-11-01T13:57:16.873Z,15.82
2022-11-01T13:59:53.944Z,15.86
2022-11-01T14:02:23.673Z,15.73
2022-11-01T14:05:10.492Z,15.73
2022-11-01T14:07:58.148Z,15.78
2022-11-01T14:10:30.588Z,15.76
2022-11-01T14:12:56.877Z,15.67
2022-11-01T14:15:26.711Z,15.59
2022-11-01T14:17:56.139Z,15.62
2022-11-01T14:20:25.512Z,15.68
2022-11-01T14:22:53.215Z,15.62
2022-11-01T14:27:51.729Z,15.57
2022-11-01T14:30:23.787Z,15.51
2022-11-01T14:32:54.418Z,15.54
2022-11-01T14:35:33.379Z,15.55
2022-11-01T14:38:04.991Z,15.53
2022-11-01T14:40:46.487Z,15.53
2022-11-01T14:43:38.937Z,15.49
2022-11-01T14:46:19.083Z,15.61
2022-11-01T14:49:00.613Z,15.62
2022-11-01T14:51:32.669Z,15.51
2022-11-01T14:54:16.675Z,15.60
2022-11-01T14:56:52.506Z,15.47
2022-11-01T14:59:29.056Z,15.40
2022-11-01T15:02:02.708Z,15.42
2022-11-01T15:04:32.414Z,15.38
2022-11-01T15:07:00.152Z,15.38
2022-11-01T15:09:30.162Z,15.42
2022-11-01T15:12:06.838Z,15.38
2022-11-01T15:14:40.312Z,15.40
2022-11-01T15:17:16.985Z,15.41
2022-11-01T15:19:45.151Z,15.45
2022-11-01T15:22:17.606Z,15.45
2022-11-01T15:24:46.813Z,15.36
2022-11-01T15:27:20.039Z,15.32
2022-11-01T15:29:48.188Z,15.23
2022-11-01T15:32:30.207Z,15.24
2022-11-01T15:34:59.797Z,15.23
2022-11-01T15:37:32.290Z,15.19
2022-11-01T15:40:25.872Z,15.19
2022-11-01T15:43:00.643Z,15.19
2022-11-01T15:45:35.742Z,15.27
2022-11-01T15:48:12.427Z,15.26
2022-11-01T15:50:45.621Z,15.19
2022-11-01T15:53:20.524Z,15.16
2022-11-01T15:55:53.956Z,15.15
2022-11-01T15:58:26.890Z,15.15
2022-11-01T16:00:59.366Z,15.23
2022-11-01T16:03:40.055Z,15.19
2022-11-01T16:06:25.377Z,15.08
2022-11-01T16:08:57.446Z,15.14
2022-11-01T16:11:27.756Z,15.12
2022-11-01T16:14:05.023Z,15.10
2022-11-01T16:16:57.421Z,15.15
2022-11-01T16:19:45.094Z,15.23
2022-11-01T16:22:37.369Z,15.13
2022-11-01T16:25:06.486Z,15.20
2022-11-01T16:27:35.792Z,15.17
2022-11-01T16:30:10.198Z,15.17
2022-11-01T16:32:36.740Z,15.18
2022-11-01T16:35:29.228Z,15.09
2022-11-01T16:37:55.612Z,15.10
2022-11-01T16:40:23.491Z,15.05
2022-11-01T16:42:49.834Z,15.03
2022-11-01T16:45:16.347Z,14.99
2022-11-01T16:47:42.874Z,14.96
2022-11-01T16:50:18.071Z,14.97
2022-11-01T16:52:44.492Z,15.01
2022-11-01T16:55:14.347Z,14.96
2022-11-01T16:57:41.412Z,14.93
2022-11-01T17:00:13.494Z,14.88
2022-11-01T17:02:40.502Z,14.98
2022-11-01T17:05:12.897Z,14.95
2022-11-01T17:07:39.259Z,14.93
2022-11-01T17:10:25.421Z,14.91
2022-11-01T17:12:52.402Z,14.96
2022-11-01T17:15:19.484Z,14.94
2022-11-01T17:17:48.396Z,14.92
2022-11-01T17:20:22.699Z,15.02
2022-11-01T17:22:51.673Z,15.02
2022-11-01T17:25:21.867Z,14.97
2022-11-01T17:27:51.083Z,14.95
2022-11-01T17:30:20.928Z,15.01
2022-11-01T17:32:47.307Z,15.02
2022-11-01T17:35:15.166Z,15.00
2022-11-01T17:37:42.468Z,14.98
2022-11-01T17:40:18.857Z,15.03
2022-11-01T17:42:45.348Z,14.99
2022-11-01T17:45:12.091Z,14.95
2022-11-01T17:47:38.493Z,14.83
2022-11-01T17:50:05.201Z,14.77
2022-11-01T17:52:31.609Z,14.80
2022-11-01T17:54:58.022Z,14.86
2022-11-01T17:57:24.365Z,14.82
2022-11-01T17:59:50.748Z,14.92
2022-11-01T18:02:17.681Z,14.98
2022-11-01T18:04:45.148Z,14.97
2022-11-01T18:07:12.733Z,14.96
2022-11-01T18:09:39.720Z,14.97
2022-11-01T18:12:11.780Z,14.92
2022-11-01T18:14:54.214Z,14.95
2022-11-01T18:18:01.265Z,14.91
2022-11-01T18:20:47.184Z,14.91
2022-11-01T18:23:17.232Z,14.82
2022-11-01T18:25:51.180Z,14.86
2022-11-01T18:28:18.632Z,14.88
2022-11-01T18:31:01.756Z,14.87
2022-11-01T18:33:48.327Z,14.89
2022-11-01T18:36:21.293Z,14.90
2022-11-01T18:39:00.312Z,14.89
2022-11-01T18:41:26.729Z,14.81
2022-11-01T18:43:54.203Z,14.77
2022-11-01T18:46:26.185Z,14.77
2022-11-01T18:49:01.846Z,14.82
2022-11-01T18:51:33.960Z,14.79
2022-11-01T18:54:09.145Z,14.66
2022-11-01T18:56:39.403Z,14.67
2022-11-01T18:59:39.062Z,14.59
2022-11-01T19:02:20.362Z,14.63
2022-11-01T19:04:53.030Z,14.50
2022-11-01T19:07:50.756Z,14.49
2022-11-01T19:10:23.888Z,14.50
2022-11-01T19:12:58.510Z,14.50
2022-11-01T19:15:29.613Z,14.51
2022-11-01T19:18:23.629Z,14.49
2022-11-01T19:21:01.941Z,14.42
2022-11-01T19:23:42.403Z,14.46
2022-11-01T19:26:42.231Z,14.49
2022-11-01T19:29:27.807Z,14.42
2022-11-01T19:32:02.432Z,14.57
2022-11-01T19:34:38.795Z,14.58
2022-11-01T19:37:30.452Z,14.57
2022-11-01T19:40:01.560Z,14.57
2022-11-01T19:42:35.621Z,14.60
2022-11-01T19:45:15.757Z,14.58
2022-11-01T19:47:51.180Z,14.56
2022-11-01T19:50:35.528Z,14.52
2022-11-01T19:53:21.416Z,14.47
2022-11-01T19:55:58.911Z,14.52
2022-11-01T19:58:29.363Z,14.55
2022-11-01T20:01:26.360Z,14.47
2022-11-01T20:03:57.718Z,14.37
2022-11-01T20:06:36.968Z,14.33
2022-11-01T20:09:10.525Z,14.26
2022-11-01T20:11:40.591Z,14.18
2022-11-01T20:14:09.376Z,14.11
2022-11-01T20:16:40.830Z,14.05
2022-11-01T20:19:17.657Z,14.10
2022-11-01T20:21:47.723Z,14.12
2022-11-01T20:24:16.712Z,14.12
2022-11-01T20:26:45.605Z,14.06
2022-11-01T20:29:15.212Z,14.13
2022-11-01T20:31:45.641Z,14.18
2022-11-01T20:34:23.341Z,14.22
2022-11-01T20:37:22.854Z,14.28
2022-11-01T20:39:49.486Z,14.25
2022-11-01T20:42:20.931Z,14.29
2022-11-01T20:44:52.689Z,14.35
2022-11-01T20:47:24.558Z,14.32
2022-11-01T20:49:57.602Z,14.35
2022-11-01T20:52:39.306Z,14.42
2022-11-01T20:55:15.700Z,14.45
2022-11-01T20:57:44.591Z,14.42
2022-11-01T21:00:19.439Z,14.43
2022-11-01T21:02:50.767Z,14.34
2022-11-01T21:05:27.441Z,14.36
2022-11-01T21:08:07.122Z,14.17
2022-11-01T21:10:41.096Z,14.14
2022-11-01T21:13:33.953Z,14.14
2022-11-01T21:16:09.295Z,14.12
2022-11-01T21:18:47.085Z,14.04
2022-11-01T21:21:18.580Z,14.13
2022-11-01T21:23:48.759Z,14.04
2022-11-01T21:26:25.741Z,14.04
2022-11-01T21:29:03.130Z,13.95
2022-11-01T21:31:40.830Z,13.91
2022-11-01T21:34:12.138Z,13.82
2022-11-01T21:36:42.823Z,13.74
2022-11-01T21:39:16.105Z,13.76
2022-11-01T21:41:55.340Z,13.75
2022-11-01T21:44:34.160Z,13.70
2022-11-01T21:47:24.655Z,13.66
2022-11-01T21:49:53.449Z,13.75
2022-11-01T21:52:22.341Z,13.76
2022-11-01T21:54:51.123Z,13.77
2022-11-01T21:57:34.762Z,13.75
2022-11-01T22:00:03.856Z,13.67
2022-11-01T22:02:33.152Z,13.62
2022-11-01T22:05:02.155Z,13.64
2022-11-01T22:07:35.341Z,13.69
2022-11-01T22:10:03.934Z,13.65
2022-11-01T22:12:35.535Z,13.64
2022-11-01T22:15:07.747Z,13.69
2022-11-01T22:17:36.538Z,13.70
2022-11-01T22:20:05.838Z,13.70
2022-11-01T22:22:34.626Z,13.58
2022-11-01T22:25:06.283Z,13.48
2022-11-01T22:27:37.119Z,13.45
2022-11-01T22:30:09.549Z,13.46
2022-11-01T22:32:38.584Z,13.36
2022-11-01T22:35:07.331Z,13.35
2022-11-01T22:37:38.830Z,13.36
2022-11-01T22:40:14.374Z,13.32
2022-11-01T22:42:43.163Z,13.28
2022-11-01T22:45:16.249Z,13.26
2022-11-01T22:47:47.396Z,13.24
2022-11-01T22:50:30.112Z,13.12
2022-11-01T22:52:59.103Z,13.16
2022-11-01T22:55:29.018Z,13.11
2022-11-01T22:58:12.144Z,13.10
2022-11-01T23:00:44.404Z,13.06
2022-11-01T23:03:26.316Z,13.06
2022-11-01T23:05:59.598Z,13.00
2022-11-01T23:08:30.591Z,13.04
2022-11-01T23:11:03.817Z,13.04
2022-11-01T23:13:57.922Z,13.01
2022-11-01T23:16:43.703Z,12.92
2022-11-01T23:19:18.842Z,12.90
2022-11-01T23:21:48.858Z,12.96
2022-11-01T23:24:18.056Z,13.00
2022-11-01T23:26:49.606Z,12.97
2022-11-01T23:29:19.831Z,12.93
2022-11-01T23:31:48.619Z,12.94
2022-11-01T23:34:18.225Z,12.79
2022-11-01T23:36:47.119Z,12.76
2022-11-01T23:39:16.517Z,12.76
2022-11-01T23:41:49.914Z,12.82
2022-11-01T23:44:28.535Z,12.74
2022-11-01T23:47:18.937Z,12.61
2022-11-01T23:49:47.183Z,12.57
2022-11-01T23:52:35.474Z,12.61
2022-11-01T23:55:03.285Z,12.67
2022-11-01T23:57:30.180Z,12.73
2022-11-01T23:59:56.631Z,12.73
